Linton-on-ouse, United Kingdom
Current Conditions -  °F | °C
As of 4:50 PM on Saturday 22 Nov 2014 (Local Time) from EGXU Reporting Station
Broken Clouds Broken Clouds  
Wind Chill: 50°   Ceiling: 23000
Heat Index: 50°   Visibility: 1.3mi
Dew Point: 50°   Wind: 3mph
Humidity: 100%   Direction: 180°S
Pressure: 29.85"   Gusts: NA
Location:  54.05°N, 1.25°W
Report Text: EGXU 221650Z AUTO 18003KT 2100 // FEW002/// BKN230/// 10/10 Q1011
Loading
Personal Weather Stations






























Interactive Weather Map New forecast layout! Learn more

10-Day Weather Forecast

Advertisements
Track Severe Weather on mobile